Time;durP1;ratioP1;P1;durP2;ratioP2;P2;SDS_P1;SDS_P2;PMS_P1;PMS_P2;Temp;Humidity;BMP_temperature;BMP_pressure;BME280_temperature;BME280_humidity;BME280_pressure;Samples;Min_cycle;Max_cycle;Signal;HPM_P1;HPM_P2
2022/02/14 00:01:43;;;;;;;;;7.00;7.00;;;;;;;;5059907;28;45371;-84
2022/02/14 00:04:08;;;;;;;;;10.00;6.50;;;;;;;;5058867;28;45323;-83
2022/02/14 00:06:33;;;;;;;;;7.75;5.00;;;;;;;;5059009;28;45438;-84
2022/02/14 00:08:58;;;;;;;;;7.00;7.00;;;;;;;;5058690;28;46318;-83
2022/02/14 00:11:24;;;;;;;;;5.50;3.75;;;;;;;;5060078;28;45213;-83
2022/02/14 00:13:52;;;;;;;;;6.50;6.00;;;;;;;;5061588;28;45335;-83
2022/02/14 00:16:17;;;;;;;;;8.50;6.75;;;;;;;;5057399;28;45335;-83
2022/02/14 00:18:43;;;;;;;;;8.50;6.75;;;;;;;;5059018;28;46034;-85
2022/02/14 00:21:08;;;;;;;;;7.50;5.75;;;;;;;;5060190;28;45344;-83
2022/02/14 00:23:34;;;;;;;;;3.75;3.75;;;;;;;;5059498;28;45576;-81
2022/02/14 00:25:59;;;;;;;;;5.75;3.00;;;;;;;;5058869;28;45583;-83
2022/02/14 00:28:24;;;;;;;;;6.75;2.25;;;;;;;;5058126;28;45544;-83
2022/02/14 00:30:49;;;;;;;;;8.00;5.25;;;;;;;;5059132;28;45445;-83
2022/02/14 00:33:14;;;;;;;;;5.00;5.00;;;;;;;;5040794;28;45460;-81
2022/02/14 00:35:40;;;;;;;;;7.25;6.75;;;;;;;;5059731;28;45348;-81
2022/02/14 00:38:05;;;;;;;;;5.00;5.00;;;;;;;;5062588;28;45512;-83
2022/02/14 00:40:30;;;;;;;;;7.00;7.00;;;;;;;;5062800;28;45439;-84
2022/02/14 00:42:55;;;;;;;;;7.25;5.75;;;;;;;;5059690;28;45325;-82
2022/02/14 00:45:21;;;;;;;;;10.00;7.50;;;;;;;;5058243;28;47119;-81
2022/02/14 00:47:46;;;;;;;;;8.25;7.25;;;;;;;;5062467;28;46194;-83
2022/02/14 00:50:12;;;;;;;;;7.75;6.50;;;;;;;;5063998;27;45319;-84
2022/02/14 00:52:39;;;;;;;;;2.50;1.50;;;;;;;;5061146;28;45458;-84
2022/02/14 00:55:05;;;;;;;;;9.75;6.25;;;;;;;;5059886;28;45399;-83
2022/02/14 00:57:30;;;;;;;;;7.00;5.25;;;;;;;;5060387;28;46674;-83
2022/02/14 00:59:56;;;;;;;;;8.50;5.25;;;;;;;;5058897;28;45457;-83
2022/02/14 01:02:21;;;;;;;;;4.00;4.00;;;;;;;;5058557;28;45437;-85
2022/02/14 01:04:46;;;;;;;;;2.00;2.00;;;;;;;;5059150;27;45396;-84
2022/02/14 01:07:11;;;;;;;;;3.75;3.75;;;;;;;;5058462;28;46454;-84
2022/02/14 01:09:36;;;;;;;;;6.75;5.00;;;;;;;;5059927;28;45291;-84
2022/02/14 01:12:02;;;;;;;;;5.75;5.50;;;;;;;;5059527;27;45472;-85
2022/02/14 01:14:27;;;;;;;;;3.25;2.25;;;;;;;;5061023;28;45520;-84
2022/02/14 01:16:57;;;;;;;;;5.00;5.00;;;;;;;;5060891;28;46043;-84
2022/02/14 01:19:22;;;;;;;;;6.50;3.50;;;;;;;;5061599;28;45355;-83
2022/02/14 01:21:47;;;;;;;;;5.00;5.00;;;;;;;;5059785;28;45434;-83
2022/02/14 01:24:12;;;;;;;;;3.00;3.00;;;;;;;;5066291;28;45381;-84
2022/02/14 01:26:38;;;;;;;;;4.50;3.50;;;;;;;;5060803;28;47570;-85
2022/02/14 01:29:03;;;;;;;;;7.25;4.00;;;;;;;;5060856;28;45371;-83
2022/02/14 01:31:28;;;;;;;;;3.25;1.75;;;;;;;;5058966;28;45246;-84
2022/02/14 01:33:54;;;;;;;;;4.00;4.00;;;;;;;;5058732;28;45220;-84
2022/02/14 01:36:19;;;;;;;;;5.00;5.00;;;;;;;;5039770;28;46451;-84
2022/02/14 01:38:44;;;;;;;;;9.00;5.25;;;;;;;;5058933;28;45485;-84
2022/02/14 01:41:09;;;;;;;;;5.75;5.00;;;;;;;;5055172;28;45496;-84
2022/02/14 01:43:34;;;;;;;;;5.00;4.00;;;;;;;;5039423;28;45336;-84
2022/02/14 01:46:00;;;;;;;;;5.25;3.75;;;;;;;;5058232;28;46053;-83
2022/02/14 01:48:25;;;;;;;;;2.00;2.00;;;;;;;;5044058;28;45411;-85
2022/02/14 01:50:51;;;;;;;;;8.25;4.50;;;;;;;;5043056;28;45461;-83
2022/02/14 01:53:16;;;;;;;;;6.25;5.25;;;;;;;;5026729;28;45454;-84
2022/02/14 01:55:41;;;;;;;;;4.50;4.50;;;;;;;;5043854;28;45806;-84
2022/02/14 01:58:07;;;;;;;;;6.00;4.00;;;;;;;;5042015;28;45305;-85
2022/02/14 02:00:33;;;;;;;;;5.75;5.25;;;;;;;;5043791;28;45396;-84
2022/02/14 02:02:58;;;;;;;;;5.00;4.00;;;;;;;;5041561;28;45538;-84
2022/02/14 02:05:24;;;;;;;;;3.00;2.00;;;;;;;;5040340;28;47193;-83
2022/02/14 02:07:51;;;;;;;;;2.25;2.25;;;;;;;;5041047;28;45436;-83
2022/02/14 02:10:17;;;;;;;;;4.75;4.75;;;;;;;;5037220;28;45301;-85
2022/02/14 02:12:53;;;;;;;;;1.25;1.25;;;;;;;;5040304;28;45296;-84
2022/02/14 02:15:19;;;;;;;;;6.00;3.50;;;;;;;;5040763;28;46433;-83
2022/02/14 02:17:44;;;;;;;;;5.00;5.00;;;;;;;;5039990;28;45489;-84
2022/02/14 02:20:13;;;;;;;;;4.50;2.00;;;;;;;;5040375;28;45441;-84
2022/02/14 02:22:38;;;;;;;;;5.00;3.00;;;;;;;;5039951;28;45643;-84
2022/02/14 02:25:04;;;;;;;;;5.00;5.00;;;;;;;;5043604;28;45289;-84
2022/02/14 02:27:29;;;;;;;;;2.25;2.25;;;;;;;;5040676;28;45398;-84
2022/02/14 02:29:55;;;;;;;;;2.25;1.00;;;;;;;;5040642;28;45432;-85
2022/02/14 02:32:20;;;;;;;;;3.75;3.75;;;;;;;;5039419;28;45338;-84
2022/02/14 02:34:46;;;;;;;;;0.50;0.50;;;;;;;;5038557;28;47147;-84
2022/02/14 02:37:12;;;;;;;;;3.50;3.50;;;;;;;;5035787;28;45308;-84
2022/02/14 02:39:38;;;;;;;;;4.00;3.25;;;;;;;;5053561;28;45256;-84
2022/02/14 02:42:04;;;;;;;;;6.50;4.50;;;;;;;;5055902;28;45474;-83
2022/02/14 02:44:30;;;;;;;;;6.50;4.50;;;;;;;;5056347;28;46349;-83
2022/02/14 02:46:55;;;;;;;;;7.75;4.50;;;;;;;;5055981;28;45401;-84
2022/02/14 02:49:22;;;;;;;;;6.00;4.50;;;;;;;;5055473;28;45453;-84
2022/02/14 02:51:49;;;;;;;;;3.50;3.50;;;;;;;;5056997;28;45480;-83
2022/02/14 02:54:14;;;;;;;;;4.00;4.00;;;;;;;;5055975;28;46192;-84
2022/02/14 02:56:41;;;;;;;;;6.50;5.50;;;;;;;;5058914;28;45261;-84
2022/02/14 02:59:08;;;;;;;;;3.75;3.75;;;;;;;;5062058;28;45408;-84
2022/02/14 03:01:33;;;;;;;;;6.75;3.75;;;;;;;;5061788;28;45331;-84
2022/02/14 03:04:00;;;;;;;;;2.00;1.00;;;;;;;;5056106;28;45206;-84
2022/02/14 03:06:25;;;;;;;;;3.25;2.75;;;;;;;;5058845;28;45773;-83
2022/02/14 03:08:50;;;;;;;;;1.75;1.75;;;;;;;;5047730;28;45486;-83
2022/02/14 03:11:16;;;;;;;;;3.00;3.00;;;;;;;;5058999;28;45474;-84
2022/02/14 03:13:41;;;;;;;;;2.75;2.75;;;;;;;;5056249;28;46348;-84
2022/02/14 03:16:07;;;;;;;;;1.00;1.00;;;;;;;;5055193;28;45319;-84
2022/02/14 03:18:32;;;;;;;;;3.25;3.25;;;;;;;;5055836;28;45448;-84
2022/02/14 03:20:57;;;;;;;;;6.00;5.00;;;;;;;;5055717;28;45399;-84
2022/02/14 03:23:23;;;;;;;;;3.50;3.50;;;;;;;;5035997;28;45416;-84
2022/02/14 03:25:48;;;;;;;;;1.75;1.75;;;;;;;;5023200;27;45451;-84
2022/02/14 03:28:13;;;;;;;;;1.00;1.00;;;;;;;;5055255;28;45406;-84
2022/02/14 03:30:38;;;;;;;;;1.00;1.00;;;;;;;;5055847;28;45468;-84
2022/02/14 03:33:03;;;;;;;;;3.25;3.00;;;;;;;;5055563;28;47159;-84
2022/02/14 03:35:29;;;;;;;;;5.50;4.50;;;;;;;;5037432;28;45577;-84
2022/02/14 03:37:56;;;;;;;;;8.75;6.50;;;;;;;;5055829;28;45462;-82
2022/02/14 03:40:21;;;;;;;;;6.00;6.00;;;;;;;;5054403;28;45537;-83
2022/02/14 03:42:46;;;;;;;;;4.25;4.25;;;;;;;;5055709;28;46356;-84
2022/02/14 03:45:12;;;;;;;;;4.00;3.00;;;;;;;;5055838;28;45710;-83
2022/02/14 03:47:37;;;;;;;;;7.50;3.75;;;;;;;;5057061;28;45316;-83
2022/02/14 03:50:02;;;;;;;;;1.50;1.50;;;;;;;;5057191;28;45483;-83
2022/02/14 03:52:27;;;;;;;;;3.00;2.00;;;;;;;;5055050;28;46023;-83
2022/02/14 03:54:53;;;;;;;;;2.50;2.50;;;;;;;;5055386;28;45382;-80
2022/02/14 03:57:18;;;;;;;;;2.75;2.00;;;;;;;;5054987;28;45540;-80
2022/02/14 03:59:43;;;;;;;;;2.50;1.75;;;;;;;;5058073;28;45351;-80
2022/02/14 04:02:09;;;;;;;;;3.25;2.25;;;;;;;;5058425;28;47821;-81
2022/02/14 04:04:34;;;;;;;;;4.50;3.00;;;;;;;;5058680;28;45236;-80
2022/02/14 04:06:59;;;;;;;;;1.00;1.00;;;;;;;;5058198;28;45388;-80
2022/02/14 04:09:24;;;;;;;;;1.50;0.50;;;;;;;;5058646;28;45562;-80
2022/02/14 04:11:49;;;;;;;;;0.50;0.50;;;;;;;;5059064;28;46094;-79
2022/02/14 04:14:15;;;;;;;;;0.25;0.25;;;;;;;;5060186;27;45324;-80
2022/02/14 04:16:40;;;;;;;;;0.00;0.00;;;;;;;;5058596;28;45264;-81
2022/02/14 04:19:05;;;;;;;;;0.00;0.00;;;;;;;;5057555;28;45547;-80
2022/02/14 04:21:31;;;;;;;;;0.00;0.00;;;;;;;;5058092;28;47097;-80
2022/02/14 04:23:56;;;;;;;;;0.00;0.00;;;;;;;;5057907;28;45356;-79
2022/02/14 04:26:21;;;;;;;;;0.00;0.00;;;;;;;;5058156;28;45390;-79
2022/02/14 04:28:46;;;;;;;;;1.00;0.00;;;;;;;;5058146;28;45403;-79
2022/02/14 04:31:11;;;;;;;;;0.00;0.00;;;;;;;;5057175;28;46196;-80
2022/02/14 04:33:37;;;;;;;;;0.00;0.00;;;;;;;;5039488;28;45383;-79
2022/02/14 04:36:02;;;;;;;;;0.00;0.00;;;;;;;;5058033;28;45402;-79
2022/02/14 04:38:27;;;;;;;;;0.00;0.00;;;;;;;;5057202;28;45619;-80
2022/02/14 04:40:53;;;;;;;;;0.00;0.00;;;;;;;;5057980;28;47105;-79
2022/02/14 04:43:18;;;;;;;;;0.50;0.00;;;;;;;;5056737;28;45237;-80
2022/02/14 04:45:43;;;;;;;;;0.00;0.00;;;;;;;;5057905;28;45389;-79
2022/02/14 04:48:08;;;;;;;;;0.75;0.00;;;;;;;;5058136;27;45496;-77
2022/02/14 04:50:33;;;;;;;;;0.50;0.00;;;;;;;;5057507;28;46093;-79
2022/02/14 04:52:59;;;;;;;;;0.00;0.00;;;;;;;;5057491;28;45598;-79
2022/02/14 04:55:24;;;;;;;;;0.00;0.00;;;;;;;;5057490;28;45309;-80
2022/02/14 04:57:49;;;;;;;;;1.00;0.00;;;;;;;;5058870;27;45260;-79
2022/02/14 05:00:15;;;;;;;;;0.00;0.00;;;;;;;;5057176;28;46444;-79
2022/02/14 05:02:41;;;;;;;;;0.00;0.00;;;;;;;;5057396;28;45324;-80
2022/02/14 05:05:07;;;;;;;;;0.00;0.00;;;;;;;;5057065;28;45516;-80
2022/02/14 05:07:32;;;;;;;;;0.00;0.00;;;;;;;;5057154;28;47473;-80
2022/02/14 05:09:57;;;;;;;;;0.00;0.00;;;;;;;;5053913;28;46115;-80
2022/02/14 05:12:22;;;;;;;;;0.00;0.00;;;;;;;;5057097;28;45322;-80
2022/02/14 05:14:47;;;;;;;;;0.00;0.00;;;;;;;;5056726;28;45585;-80
2022/02/14 05:17:15;;;;;;;;;0.00;0.00;;;;;;;;5056747;28;45360;-80
2022/02/14 05:19:40;;;;;;;;;0.00;0.00;;;;;;;;5056545;28;46011;-80
2022/02/14 05:22:05;;;;;;;;;0.00;0.00;;;;;;;;5055539;28;45473;-81
2022/02/14 05:24:30;;;;;;;;;0.00;0.00;;;;;;;;5058326;28;45433;-80
2022/02/14 05:26:56;;;;;;;;;0.00;0.00;;;;;;;;5057145;28;45290;-81
2022/02/14 05:29:21;;;;;;;;;1.00;0.00;;;;;;;;5056694;28;45444;-80
2022/02/14 05:31:46;;;;;;;;;0.00;0.00;;;;;;;;5056830;28;45574;-80
2022/02/14 05:34:11;;;;;;;;;0.25;0.25;;;;;;;;5055977;28;45472;-80
2022/02/14 05:36:37;;;;;;;;;0.00;0.00;;;;;;;;5056420;28;45367;-80
2022/02/14 05:39:02;;;;;;;;;0.00;0.00;;;;;;;;5056191;28;47192;-79
2022/02/14 05:41:28;;;;;;;;;0.00;0.00;;;;;;;;5056544;28;45538;-79
2022/02/14 05:43:53;;;;;;;;;0.00;0.00;;;;;;;;5057039;28;45315;-79
2022/02/14 05:46:18;;;;;;;;;0.00;0.00;;;;;;;;5055685;28;45422;-79
2022/02/14 05:48:46;;;;;;;;;0.00;0.00;;;;;;;;5056005;28;47060;-79
2022/02/14 05:51:11;;;;;;;;;1.00;0.00;;;;;;;;5057012;28;45568;-79
2022/02/14 05:53:37;;;;;;;;;0.00;0.00;;;;;;;;5056335;28;45578;-80
2022/02/14 05:56:02;;;;;;;;;1.00;1.00;;;;;;;;5056307;28;45632;-79
2022/02/14 05:58:28;;;;;;;;;0.00;0.00;;;;;;;;5055472;28;46717;-79
2022/02/14 06:00:53;;;;;;;;;0.00;0.00;;;;;;;;5055496;28;45454;-79
2022/02/14 06:03:18;;;;;;;;;0.00;0.00;;;;;;;;5056008;28;45477;-79
2022/02/14 06:05:43;;;;;;;;;0.00;0.00;;;;;;;;5055862;28;45341;-80
2022/02/14 06:08:08;;;;;;;;;0.00;0.00;;;;;;;;5056134;28;45443;-79
2022/02/14 06:10:34;;;;;;;;;0.25;0.25;;;;;;;;5055975;28;46438;-80
2022/02/14 06:12:59;;;;;;;;;1.25;1.00;;;;;;;;5055625;28;45320;-80
2022/02/14 06:15:24;;;;;;;;;0.00;0.00;;;;;;;;5057084;28;45495;-81
2022/02/14 06:17:49;;;;;;;;;1.00;0.00;;;;;;;;5058324;28;47246;-81
2022/02/14 06:20:15;;;;;;;;;0.50;0.00;;;;;;;;5058392;28;45477;-81
2022/02/14 06:22:40;;;;;;;;;0.00;0.00;;;;;;;;5056774;28;45438;-81
2022/02/14 06:25:05;;;;;;;;;0.25;0.00;;;;;;;;5055845;28;45320;-82
2022/02/14 06:27:31;;;;;;;;;0.75;0.75;;;;;;;;5056149;28;47226;-84
2022/02/14 06:29:56;;;;;;;;;0.00;0.00;;;;;;;;5056844;28;45440;-82
2022/02/14 06:32:21;;;;;;;;;0.25;0.25;;;;;;;;5037910;28;45309;-82
2022/02/14 06:34:46;;;;;;;;;0.00;0.00;;;;;;;;5056969;28;45231;-82
2022/02/14 06:37:12;;;;;;;;;0.00;0.00;;;;;;;;5056270;28;46105;-81
2022/02/14 06:39:37;;;;;;;;;0.00;0.00;;;;;;;;5056360;28;45403;-80
2022/02/14 06:42:02;;;;;;;;;0.00;0.00;;;;;;;;5055728;28;45421;-83
2022/02/14 06:44:27;;;;;;;;;1.00;0.25;;;;;;;;5056706;28;45387;-80
2022/02/14 06:46:54;;;;;;;;;1.00;1.00;;;;;;;;5056068;28;46233;-82
2022/02/14 06:49:19;;;;;;;;;0.75;0.00;;;;;;;;5055110;28;45388;-82
2022/02/14 06:51:45;;;;;;;;;0.50;0.50;;;;;;;;5055060;28;45689;-79
2022/02/14 06:54:10;;;;;;;;;0.00;0.00;;;;;;;;5054878;28;45241;-77
2022/02/14 06:56:35;;;;;;;;;1.00;1.00;;;;;;;;5055814;28;47424;-80
2022/02/14 06:59:00;;;;;;;;;0.50;0.50;;;;;;;;5056004;28;45459;-79
2022/02/14 07:01:26;;;;;;;;;1.00;1.00;;;;;;;;5053781;28;45303;-79
2022/02/14 07:03:51;;;;;;;;;1.00;1.00;;;;;;;;5054132;28;45536;-80
2022/02/14 07:06:17;;;;;;;;;3.00;1.00;;;;;;;;5054750;28;45947;-80
2022/02/14 07:08:44;;;;;;;;;0.50;0.00;;;;;;;;5054415;28;45355;-80
2022/02/14 07:11:09;;;;;;;;;0.00;0.00;;;;;;;;5054907;28;45251;-80
2022/02/14 07:13:34;;;;;;;;;5.00;1.50;;;;;;;;5055234;28;45527;-80
2022/02/14 07:16:01;;;;;;;;;5.00;4.00;;;;;;;;5053449;28;46362;-77
2022/02/14 07:18:27;;;;;;;;;1.50;1.50;;;;;;;;5055436;28;45359;-84
2022/02/14 07:20:52;;;;;;;;;2.00;1.00;;;;;;;;5059001;28;45258;-84
2022/02/14 07:23:18;;;;;;;;;0.00;0.00;;;;;;;;5056853;28;45165;-84
2022/02/14 07:25:43;;;;;;;;;1.50;1.00;;;;;;;;5054152;28;45990;-84
2022/02/14 07:28:08;;;;;;;;;1.50;1.50;;;;;;;;5054313;28;45356;-83
2022/02/14 07:30:33;;;;;;;;;2.00;1.00;;;;;;;;5052796;28;45775;-81
2022/02/14 07:32:59;;;;;;;;;5.00;1.50;;;;;;;;5053094;28;48378;-83
2022/02/14 07:35:24;;;;;;;;;3.00;1.50;;;;;;;;5058024;28;45419;-83
2022/02/14 07:37:49;;;;;;;;;1.00;0.75;;;;;;;;5059418;28;45363;-85
2022/02/14 07:40:15;;;;;;;;;3.50;2.25;;;;;;;;5060480;28;45491;-85
2022/02/14 07:42:41;;;;;;;;;3.00;3.00;;;;;;;;5059599;28;45558;-84
2022/02/14 07:45:07;;;;;;;;;5.50;3.00;;;;;;;;5041965;28;46428;-82
2022/02/14 07:47:32;;;;;;;;;5.50;3.50;;;;;;;;5057807;28;45316;-84
2022/02/14 07:49:57;;;;;;;;;2.25;2.00;;;;;;;;5058351;28;45470;-83
2022/02/14 07:52:23;;;;;;;;;1.00;1.00;;;;;;;;5057590;28;45308;-82
2022/02/14 07:54:48;;;;;;;;;0.25;0.25;;;;;;;;5057544;28;46627;-85
2022/02/14 07:57:14;;;;;;;;;2.00;1.00;;;;;;;;5056128;28;45513;-85
2022/02/14 07:59:39;;;;;;;;;2.00;2.00;;;;;;;;5056273;28;45410;-83
2022/02/14 08:02:04;;;;;;;;;3.75;2.25;;;;;;;;5056928;28;45412;-86
2022/02/14 08:04:29;;;;;;;;;1.00;1.00;;;;;;;;5057849;28;46261;-84
2022/02/14 08:06:54;;;;;;;;;1.00;1.00;;;;;;;;5057521;28;45208;-83
2022/02/14 08:09:20;;;;;;;;;0.75;0.75;;;;;;;;5056926;28;45599;-84
2022/02/14 08:11:45;;;;;;;;;3.75;0.75;;;;;;;;5058323;28;45422;-85
2022/02/14 08:14:10;;;;;;;;;1.00;1.00;;;;;;;;5059889;28;45468;-84
2022/02/14 08:16:36;;;;;;;;;1.25;1.25;;;;;;;;5056484;28;45563;-84
2022/02/14 08:19:01;;;;;;;;;1.50;1.50;;;;;;;;5061930;28;45330;-82
2022/02/14 08:21:27;;;;;;;;;2.50;1.50;;;;;;;;5057948;28;45372;-79
2022/02/14 08:23:53;;;;;;;;;0.00;0.00;;;;;;;;5053909;28;47219;-81
2022/02/14 08:26:18;;;;;;;;;1.00;0.00;;;;;;;;5043355;28;45357;-78
2022/02/14 08:28:43;;;;;;;;;2.75;2.00;;;;;;;;5054579;28;45330;-78
2022/02/14 08:31:09;;;;;;;;;3.75;2.00;;;;;;;;5055628;28;45514;-76
2022/02/14 08:33:34;;;;;;;;;3.75;3.00;;;;;;;;5054164;28;46104;-78
2022/02/14 08:35:59;;;;;;;;;1.00;1.00;;;;;;;;5054783;28;45510;-78
2022/02/14 08:38:24;;;;;;;;;1.50;1.50;;;;;;;;5053065;28;45481;-77
2022/02/14 08:40:50;;;;;;;;;3.00;1.50;;;;;;;;5054861;28;45415;-77
2022/02/14 08:43:16;;;;;;;;;1.00;1.00;;;;;;;;5057267;28;45464;-76
2022/02/14 08:45:41;;;;;;;;;3.00;2.00;;;;;;;;5057969;27;45345;-78
2022/02/14 08:48:06;;;;;;;;;0.25;0.25;;;;;;;;5057002;28;45305;-77
2022/02/14 08:50:32;;;;;;;;;4.50;1.25;;;;;;;;5055654;28;45490;-78
2022/02/14 08:53:00;;;;;;;;;0.25;0.25;;;;;;;;5055867;28;45345;-77
2022/02/14 08:55:26;;;;;;;;;3.75;1.25;;;;;;;;5055121;28;45430;-76
2022/02/14 08:57:52;;;;;;;;;1.00;0.00;;;;;;;;5055142;28;45557;-77
2022/02/14 09:00:17;;;;;;;;;4.75;2.00;;;;;;;;5054862;28;45538;-78
2022/02/14 09:02:42;;;;;;;;;3.75;3.50;;;;;;;;5054463;28;47252;-78
2022/02/14 09:05:07;;;;;;;;;2.00;2.00;;;;;;;;5056844;28;45376;-79
2022/02/14 09:07:33;;;;;;;;;2.75;1.75;;;;;;;;5055192;28;45307;-77
2022/02/14 09:09:58;;;;;;;;;2.00;1.00;;;;;;;;5055241;28;45632;-79
2022/02/14 09:12:24;;;;;;;;;3.50;2.00;;;;;;;;5053620;28;49903;-79
2022/02/14 09:14:50;;;;;;;;;1.75;1.00;;;;;;;;5054132;28;48762;-79
2022/02/14 09:17:15;;;;;;;;;3.25;2.00;;;;;;;;5055006;28;45984;-78
2022/02/14 09:19:42;;;;;;;;;4.00;1.00;;;;;;;;5054100;28;45547;-78
2022/02/14 09:22:07;;;;;;;;;3.00;1.50;;;;;;;;5055702;28;45433;-77
2022/02/14 09:24:33;;;;;;;;;1.50;1.50;;;;;;;;5054476;28;45552;-79
2022/02/14 09:26:58;;;;;;;;;2.00;1.25;;;;;;;;5053534;28;45434;-78
2022/02/14 09:29:23;;;;;;;;;4.25;3.00;;;;;;;;5057980;28;45274;-79
2022/02/14 09:31:51;;;;;;;;;5.00;2.50;;;;;;;;5067509;28;45389;-76
2022/02/14 09:34:19;;;;;;;;;4.75;1.50;;;;;;;;5068883;28;44857;-78
2022/02/14 09:36:44;;;;;;;;;4.00;2.50;;;;;;;;5061180;28;46584;-78
2022/02/14 09:39:10;;;;;;;;;1.00;1.00;;;;;;;;5056132;28;45406;-78
2022/02/14 09:41:36;;;;;;;;;3.00;1.00;;;;;;;;5054272;28;45412;-79
2022/02/14 09:44:03;;;;;;;;;3.50;2.00;;;;;;;;5054658;28;45531;-78
2022/02/14 09:46:29;;;;;;;;;2.25;2.25;;;;;;;;5054081;28;45462;-76
2022/02/14 09:48:57;;;;;;;;;4.25;2.00;;;;;;;;5054395;28;45620;-77
2022/02/14 09:51:22;;;;;;;;;0.25;0.00;;;;;;;;5053586;28;45535;-77
2022/02/14 09:53:47;;;;;;;;;2.50;1.00;;;;;;;;5053194;28;45284;-75
2022/02/14 09:56:13;;;;;;;;;5.25;2.00;;;;;;;;5052688;28;45500;-78
2022/02/14 09:58:38;;;;;;;;;1.25;0.00;;;;;;;;5053560;28;45353;-79
2022/02/14 10:01:04;;;;;;;;;9.75;5.75;;;;;;;;5054223;28;45448;-78
2022/02/14 10:03:29;;;;;;;;;2.00;1.00;;;;;;;;5053195;28;45467;-79
2022/02/14 10:05:55;;;;;;;;;1.00;1.00;;;;;;;;5034343;28;45620;-78
2022/02/14 10:08:25;;;;;;;;;3.50;1.00;;;;;;;;5053595;28;45421;-77
2022/02/14 10:10:51;;;;;;;;;2.00;2.00;;;;;;;;5037321;28;45253;-78
2022/02/14 10:13:33;;;;;;;;;1.00;1.00;;;;;;;;5053671;28;45627;-77
2022/02/14 10:15:59;;;;;;;;;2.50;2.00;;;;;;;;5054461;28;45402;-78
2022/02/14 10:18:29;;;;;;;;;4.75;1.00;;;;;;;;5052886;28;45276;-77
2022/02/14 10:21:33;;;;;;;;;1.00;1.00;;;;;;;;5052428;28;46383;-77
2022/02/14 10:24:04;;;;;;;;;2.00;2.00;;;;;;;;4964866;28;45350;-77
2022/02/14 10:26:30;;;;;;;;;2.00;2.00;;;;;;;;4961160;28;45369;-78
2022/02/14 10:28:55;;;;;;;;;2.75;0.25;;;;;;;;4971292;28;45400;-78
2022/02/14 10:31:21;;;;;;;;;0.25;0.25;;;;;;;;4972378;28;46179;-77
2022/02/14 10:33:48;;;;;;;;;0.00;0.00;;;;;;;;4972327;28;45316;-79
2022/02/14 10:36:34;;;;;;;;;0.00;0.00;;;;;;;;4971978;28;45479;-78
2022/02/14 10:39:15;;;;;;;;;1.00;1.00;;;;;;;;4972527;28;45588;-74
2022/02/14 10:41:46;;;;;;;;;1.25;0.25;;;;;;;;4964737;28;47380;-83
2022/02/14 10:47:06;;;;;;;;;1.00;1.00;;;;;;;;4972349;28;45484;-82
2022/02/14 10:49:32;;;;;;;;;3.50;1.00;;;;;;;;4972606;28;45482;-82
2022/02/14 10:52:00;;;;;;;;;0.50;0.50;;;;;;;;4973845;28;46293;-82
2022/02/14 10:54:27;;;;;;;;;1.50;1.00;;;;;;;;5000840;28;45340;-82
2022/02/14 10:56:52;;;;;;;;;2.50;2.50;;;;;;;;5053017;28;45357;-80
2022/02/14 10:59:19;;;;;;;;;3.50;2.00;;;;;;;;5053987;28;45204;-83
2022/02/14 11:01:44;;;;;;;;;1.25;1.25;;;;;;;;5054287;28;45389;-81
2022/02/14 11:04:09;;;;;;;;;2.25;1.00;;;;;;;;5053527;28;45292;-80
2022/02/14 11:06:36;;;;;;;;;0.00;0.00;;;;;;;;5053342;28;45367;-79
2022/02/14 11:09:02;;;;;;;;;4.25;1.00;;;;;;;;5054502;28;45464;-77
2022/02/14 11:11:27;;;;;;;;;1.00;1.00;;;;;;;;5056719;28;45481;-80
2022/02/14 11:13:54;;;;;;;;;3.00;3.00;;;;;;;;5056592;28;45305;-78
2022/02/14 11:16:20;;;;;;;;;0.00;0.00;;;;;;;;5057545;28;45429;-79
2022/02/14 11:18:47;;;;;;;;;3.75;2.00;;;;;;;;5056145;28;45248;-79
2022/02/14 11:21:12;;;;;;;;;0.00;0.00;;;;;;;;5056039;28;46808;-80
2022/02/14 11:23:43;;;;;;;;;4.25;0.25;;;;;;;;5055698;28;45462;-80
2022/02/14 11:26:44;;;;;;;;;2.00;2.00;;;;;;;;5056371;28;45394;-78
2022/02/14 11:29:19;;;;;;;;;1.25;0.00;;;;;;;;4973359;28;45597;-79
2022/02/14 11:31:44;;;;;;;;;2.50;2.00;;;;;;;;4972477;28;46237;-78
2022/02/14 11:34:10;;;;;;;;;4.00;2.25;;;;;;;;4974166;28;45397;-78
2022/02/14 11:36:39;;;;;;;;;3.00;2.00;;;;;;;;4973975;28;45457;-80
2022/02/14 11:39:06;;;;;;;;;4.50;1.00;;;;;;;;4972550;28;45539;-80
2022/02/14 11:41:32;;;;;;;;;5.25;3.75;;;;;;;;4972870;28;47048;-78
2022/02/14 11:44:16;;;;;;;;;4.25;2.25;;;;;;;;4973072;28;45295;-80
2022/02/14 11:46:42;;;;;;;;;5.75;4.00;;;;;;;;4973512;28;45394;-82
2022/02/14 11:49:07;;;;;;;;;2.75;2.75;;;;;;;;4974250;28;45592;-81
2022/02/14 11:51:37;;;;;;;;;5.00;5.00;;;;;;;;4972443;28;45997;-81
2022/02/14 11:54:03;;;;;;;;;6.00;3.50;;;;;;;;4972815;28;45399;-82
2022/02/14 11:56:29;;;;;;;;;4.00;2.25;;;;;;;;4973623;28;45343;-82
2022/02/14 11:59:14;;;;;;;;;0.50;0.00;;;;;;;;4972351;28;45521;-82
2022/02/14 12:01:49;;;;;;;;;2.75;2.75;;;;;;;;4972317;28;46262;-82
2022/02/14 12:04:32;;;;;;;;;1.00;1.00;;;;;;;;5051164;28;45413;-81
2022/02/14 12:07:15;;;;;;;;;3.00;1.75;;;;;;;;5055723;28;45352;-79
2022/02/14 12:09:59;;;;;;;;;1.25;1.25;;;;;;;;5054496;28;45614;-77
2022/02/14 12:12:43;;;;;;;;;3.25;2.00;;;;;;;;5054283;28;46096;-76
2022/02/14 12:15:17;;;;;;;;;4.75;2.00;;;;;;;;5054402;28;45456;-76
2022/02/14 12:20:36;;;;;;;;;0.00;0.00;;;;;;;;5053648;28;45293;-77
2022/02/14 12:23:02;;;;;;;;;5.00;3.00;;;;;;;;5054714;28;47058;-76
2022/02/14 12:25:27;;;;;;;;;5.75;5.00;;;;;;;;5055035;28;45467;-77
2022/02/14 12:27:56;;;;;;;;;1.00;1.00;;;;;;;;5056346;28;45496;-81
2022/02/14 12:30:21;;;;;;;;;1.00;1.00;;;;;;;;5055023;28;45575;-78
2022/02/14 12:32:48;;;;;;;;;6.25;3.50;;;;;;;;5054159;28;48051;-79
2022/02/14 12:35:26;;;;;;;;;1.75;1.25;;;;;;;;5054610;28;45523;-78
2022/02/14 12:37:51;;;;;;;;;2.75;2.75;;;;;;;;5039713;28;45501;-78
2022/02/14 12:40:18;;;;;;;;;4.25;3.00;;;;;;;;5055534;28;45365;-77
2022/02/14 12:42:43;;;;;;;;;4.00;3.00;;;;;;;;5054427;28;46063;-79
2022/02/14 12:45:12;;;;;;;;;3.00;1.50;;;;;;;;5054572;28;45407;-78
2022/02/14 12:47:37;;;;;;;;;1.25;1.25;;;;;;;;5056251;28;45552;-78
2022/02/14 12:50:14;;;;;;;;;0.00;0.00;;;;;;;;5055631;28;45443;-77
2022/02/14 12:52:42;;;;;;;;;2.00;2.00;;;;;;;;5056215;27;47002;-77
2022/02/14 12:55:08;;;;;;;;;1.00;1.00;;;;;;;;5055344;28;45380;-79
2022/02/14 12:57:36;;;;;;;;;1.00;0.00;;;;;;;;5058342;28;45407;-78
2022/02/14 13:00:02;;;;;;;;;0.00;0.00;;;;;;;;5056191;28;45569;-77
2022/02/14 13:02:29;;;;;;;;;5.00;1.25;;;;;;;;5055583;28;45495;-79
2022/02/14 13:04:54;;;;;;;;;1.50;0.00;;;;;;;;5056200;28;45490;-79
2022/02/14 13:07:19;;;;;;;;;1.25;0.25;;;;;;;;5055504;28;45356;-77
2022/02/14 13:09:45;;;;;;;;;2.50;2.00;;;;;;;;5056969;28;45617;-77
2022/02/14 13:12:15;;;;;;;;;1.75;1.25;;;;;;;;5056477;28;47257;-77
2022/02/14 13:14:47;;;;;;;;;5.00;3.25;;;;;;;;5056389;28;45342;-78
2022/02/14 13:17:19;;;;;;;;;1.00;1.00;;;;;;;;5055860;27;45561;-79
2022/02/14 13:19:52;;;;;;;;;2.00;2.00;;;;;;;;5055012;28;45446;-78
2022/02/14 13:22:22;;;;;;;;;1.00;1.00;;;;;;;;5050549;28;46134;-77
2022/02/14 13:24:47;;;;;;;;;4.25;2.25;;;;;;;;5057354;28;45445;-81
2022/02/14 13:27:14;;;;;;;;;2.25;1.75;;;;;;;;5055704;28;45664;-83
2022/02/14 13:29:47;;;;;;;;;1.00;1.00;;;;;;;;5057216;28;45442;-82
2022/02/14 13:32:17;;;;;;;;;2.25;1.00;;;;;;;;5058321;28;47382;-82
2022/02/14 13:34:59;;;;;;;;;2.00;2.00;;;;;;;;5055898;28;45501;-82
2022/02/14 13:37:25;;;;;;;;;0.00;0.00;;;;;;;;5052021;28;45352;-82
2022/02/14 13:39:50;;;;;;;;;1.50;1.25;;;;;;;;5057774;28;45541;-82
2022/02/14 13:42:19;;;;;;;;;0.00;0.00;;;;;;;;5057839;28;46931;-82
2022/02/14 13:45:00;;;;;;;;;1.00;0.75;;;;;;;;5057441;28;45311;-82
2022/02/14 13:47:25;;;;;;;;;3.00;0.25;;;;;;;;5056025;28;45469;-82
2022/02/14 13:49:50;;;;;;;;;1.00;1.00;;;;;;;;5055283;28;45563;-83
2022/02/14 13:52:23;;;;;;;;;0.00;0.00;;;;;;;;5054812;28;45879;-82
2022/02/14 13:55:05;;;;;;;;;2.00;1.00;;;;;;;;5056748;28;45408;-82
2022/02/14 13:57:30;;;;;;;;;2.25;0.00;;;;;;;;5055362;28;45435;-82
2022/02/14 13:59:55;;;;;;;;;0.75;0.00;;;;;;;;5055383;28;45434;-82
2022/02/14 14:02:23;;;;;;;;;0.50;0.50;;;;;;;;5054796;28;46088;-82
2022/02/14 14:04:48;;;;;;;;;2.50;1.25;;;;;;;;5041141;28;45528;-82
2022/02/14 14:07:24;;;;;;;;;1.50;1.50;;;;;;;;5055955;28;45293;-83
2022/02/14 14:09:50;;;;;;;;;2.00;1.00;;;;;;;;5055536;28;45540;-83
2022/02/14 14:12:16;;;;;;;;;4.50;3.50;;;;;;;;5057915;28;46194;-82
2022/02/14 14:14:43;;;;;;;;;4.25;0.50;;;;;;;;5064228;28;45356;-81
2022/02/14 14:17:10;;;;;;;;;1.50;1.50;;;;;;;;5064902;28;45388;-82
2022/02/14 14:19:51;;;;;;;;;0.00;0.00;;;;;;;;5056601;28;45405;-82
2022/02/14 14:22:18;;;;;;;;;1.25;1.00;;;;;;;;5049692;28;47783;-82
2022/02/14 14:24:44;;;;;;;;;1.25;1.25;;;;;;;;5054699;28;45514;-82
2022/02/14 14:27:10;;;;;;;;;1.50;1.00;;;;;;;;5056195;28;45267;-82
2022/02/14 14:29:36;;;;;;;;;1.50;1.25;;;;;;;;5055173;28;45600;-82
2022/02/14 14:32:02;;;;;;;;;1.50;1.50;;;;;;;;5054178;28;46006;-82
2022/02/14 14:34:27;;;;;;;;;4.75;3.00;;;;;;;;5053638;28;45459;-82
2022/02/14 14:36:52;;;;;;;;;1.00;1.00;;;;;;;;5054272;28;45352;-81
2022/02/14 14:39:17;;;;;;;;;2.00;1.00;;;;;;;;5054027;28;45401;-82
2022/02/14 14:41:42;;;;;;;;;0.75;0.75;;;;;;;;5055922;28;45400;-81
2022/02/14 14:44:08;;;;;;;;;2.50;1.75;;;;;;;;5053741;28;45408;-81
2022/02/14 14:46:33;;;;;;;;;4.50;1.50;;;;;;;;5054775;28;45240;-82